createdAt,value
2022-11-29T04:07:02.509Z,1151.4
2022-11-29T04:41:28.551Z,1164.1
2022-11-29T05:05:35.467Z,1153.5
2022-11-29T07:37:13.707Z,1090.7
2022-11-29T08:16:50.869Z,811.2
2022-11-29T08:18:32.826Z,813.2
2022-11-29T08:20:16.200Z,818.8
2022-11-29T08:21:59.616Z,819.4
2022-11-29T08:23:42.996Z,821.6
2022-11-29T08:27:09.486Z,822.2
2022-11-29T08:28:52.869Z,828.4
2022-11-29T08:30:36.303Z,834.3
2022-11-29T08:32:19.656Z,836.4
2022-11-29T08:34:03.067Z,841.4
2022-11-29T08:35:46.459Z,848.1
2022-11-29T08:37:29.859Z,850.7
2022-11-29T08:39:13.319Z,852.1
2022-11-29T08:42:39.726Z,870.2
2022-11-29T08:44:23.138Z,880.1
2022-11-29T08:46:06.512Z,886.8
2022-11-29T08:47:49.905Z,891.7
2022-11-29T08:49:33.317Z,922.4
2022-11-29T08:51:16.717Z,971.2
2022-11-29T08:53:00.096Z,973.4
2022-11-29T08:54:43.486Z,1003.3
2022-11-29T08:56:27.206Z,1076.8
2022-11-29T08:58:10.608Z,1007.7
2022-11-29T08:59:54.001Z,1011.6
2022-11-29T09:01:37.546Z,1006.3
2022-11-29T09:03:20.783Z,1007.4
2022-11-29T09:05:04.336Z,1016.1
2022-11-29T09:06:47.614Z,1024.5
2022-11-29T09:08:30.988Z,1027
2022-11-29T09:10:14.687Z,1020.8
2022-11-29T09:11:58.174Z,1018.6
2022-11-29T09:13:41.487Z,1015
2022-11-29T09:15:24.876Z,1006.5
2022-11-29T09:17:08.270Z,996
2022-11-29T09:18:51.668Z,990.5
2022-11-29T09:20:35.063Z,987.1
2022-11-29T09:22:18.463Z,980.5
2022-11-29T09:25:44.925Z,972.6
2022-11-29T09:27:28.344Z,967.3
2022-11-29T09:29:11.730Z,965.1
2022-11-29T09:30:55.125Z,963.5
2022-11-29T09:32:38.672Z,962.6
2022-11-29T09:34:21.929Z,959.5
2022-11-29T09:36:05.308Z,960.4
2022-11-29T09:37:48.710Z,959
2022-11-29T09:39:32.421Z,955.4
2022-11-29T09:41:15.803Z,950.8
2022-11-29T09:42:59.186Z,951
2022-11-29T09:44:42.602Z,947.6
2022-11-29T09:46:25.985Z,946.2
2022-11-29T09:48:09.397Z,945.4
2022-11-29T09:49:52.793Z,944
2022-11-29T09:51:36.213Z,943
2022-11-29T09:55:02.657Z,939.8
2022-11-29T09:56:46.063Z,940.8
2022-11-29T09:58:29.450Z,938.5
2022-11-29T10:00:12.886Z,938.1
2022-11-29T10:01:56.251Z,938.3
2022-11-29T10:03:39.650Z,939.3
2022-11-29T10:05:23.030Z,940.1
2022-11-29T10:10:32.291Z,939.6
2022-11-29T10:12:15.757Z,936.2
2022-11-29T10:13:59.062Z,936.8
2022-11-29T10:15:42.575Z,931.6
2022-11-29T10:17:25.869Z,927.8
2022-11-29T10:19:09.240Z,929.1
2022-11-29T10:20:52.658Z,926.5
2022-11-29T10:22:36.054Z,923.6
2022-11-29T10:26:02.556Z,925.7
2022-11-29T10:27:45.925Z,925.2
2022-11-29T10:29:29.311Z,930.5
2022-11-29T10:31:12.713Z,933
2022-11-29T10:32:56.169Z,931.6
2022-11-29T10:34:39.659Z,933.8
2022-11-29T10:36:22.896Z,935.4
2022-11-29T10:38:06.295Z,936.7
2022-11-29T10:39:50.012Z,940.4
2022-11-29T10:41:33.409Z,940.1
2022-11-29T10:43:16.785Z,942.6
2022-11-29T10:45:00.179Z,939.4
2022-11-29T10:46:43.599Z,939.7
2022-11-29T10:48:27.020Z,937.8
2022-11-29T10:50:10.445Z,935
2022-11-29T10:51:53.778Z,934.3
2022-11-29T10:53:37.478Z,936.8
2022-11-29T10:55:20.884Z,941.8
2022-11-29T10:57:04.248Z,948.8
2022-11-29T10:58:47.635Z,955
2022-11-29T11:00:31.034Z,962.1
2022-11-29T11:02:14.427Z,979.7
2022-11-29T11:03:57.940Z,1004.1
2022-11-29T11:05:41.230Z,1036.5
2022-11-29T11:09:07.728Z,1067.4
2022-11-29T11:10:51.109Z,1073.5
2022-11-29T11:12:34.491Z,1085.3
2022-11-29T11:14:17.901Z,1091.4
2022-11-29T11:16:01.286Z,1101.6
2022-11-29T11:17:44.692Z,1110.5
2022-11-29T11:19:28.075Z,1113.1
2022-11-29T11:21:11.490Z,1120.4
2022-11-29T11:24:37.961Z,1123.9
2022-11-29T11:26:21.389Z,1114.6
2022-11-29T11:28:04.760Z,1109
2022-11-29T11:29:48.150Z,1101.5
2022-11-29T11:31:31.553Z,1100.3
2022-11-29T11:33:14.941Z,1102.2
2022-11-29T11:34:58.504Z,1100.1
2022-11-29T11:36:41.727Z,1097.2
2022-11-29T11:40:08.221Z,1087.6
2022-11-29T11:41:51.617Z,1083.5
2022-11-29T11:43:35.009Z,1082
2022-11-29T11:45:18.403Z,1084.5
2022-11-29T11:47:01.804Z,1083.3
2022-11-29T11:48:45.259Z,1082.7
2022-11-29T11:50:28.620Z,1081.2
2022-11-29T11:52:12.073Z,1077
2022-11-29T11:55:38.532Z,1074.1
2022-11-29T11:57:21.846Z,1071.2
2022-11-29T11:59:05.251Z,1069.4
2022-11-29T12:00:48.638Z,1080.4
2022-11-29T12:02:32.224Z,1088
2022-11-29T12:04:15.667Z,1105.8
2022-11-29T12:05:58.867Z,1105
2022-11-29T12:07:42.257Z,1107.6
2022-11-29T12:11:08.772Z,1111.8
2022-11-29T12:12:52.123Z,1117.4
2022-11-29T12:14:35.577Z,1117.4
2022-11-29T12:16:18.997Z,1115.8
2022-11-29T12:18:02.475Z,1114.8
2022-11-29T12:19:45.720Z,1117.2
2022-11-29T12:21:29.173Z,1121.2
2022-11-29T12:23:12.698Z,1125.2
2022-11-29T12:24:56.295Z,1124.1
2022-11-29T12:26:39.598Z,1126
2022-11-29T12:28:22.987Z,1126.2
2022-11-29T12:30:06.387Z,1121.8
2022-11-29T12:31:49.774Z,1120.2
2022-11-29T12:33:33.174Z,1121.4
2022-11-29T12:35:16.599Z,1124
2022-11-29T12:36:59.961Z,1127.3
2022-11-29T12:42:09.207Z,1133.3
2022-11-29T12:43:52.613Z,1133
2022-11-29T12:45:35.998Z,1129.8
2022-11-29T12:47:19.411Z,1129.4
2022-11-29T12:49:02.941Z,1125.3
2022-11-29T12:50:46.310Z,1123.4
2022-11-29T12:52:29.735Z,1125.6
2022-11-29T12:54:13.002Z,1126.4
2022-11-29T12:57:39.464Z,1123
2022-11-29T12:59:22.870Z,1123.4
2022-11-29T13:01:06.399Z,1123.8
2022-11-29T13:02:49.828Z,1122.8
2022-11-29T13:04:33.168Z,1123
2022-11-29T13:06:16.450Z,1124.2
2022-11-29T13:07:59.841Z,1129.7
2022-11-29T13:09:43.239Z,1131.3
2022-11-29T13:13:09.818Z,1132
2022-11-29T13:14:53.195Z,1136.1
2022-11-29T13:16:36.566Z,1135.3
2022-11-29T13:18:19.942Z,1139.5
2022-11-29T13:20:03.524Z,1145.1
2022-11-29T13:21:46.870Z,1151.5
2022-11-29T13:23:30.222Z,1151.7
2022-11-29T13:28:39.353Z,1170.3
2022-11-29T13:30:22.734Z,1185.8
2022-11-29T13:32:06.141Z,1192.6
2022-11-29T13:33:49.542Z,1192.1
2022-11-29T13:35:32.917Z,1191.1
2022-11-29T13:37:16.375Z,1188.2
2022-11-29T13:38:59.753Z,1187.2
2022-11-29T13:40:43.262Z,1181.6
2022-11-29T13:44:09.596Z,1166.3
2022-11-29T13:45:52.994Z,1167.1
2022-11-29T13:47:36.445Z,1167.4
2022-11-29T13:49:19.803Z,1163.3
2022-11-29T13:51:03.220Z,1158.5
2022-11-29T13:52:46.594Z,1152.3
2022-11-29T13:54:30.078Z,1149.2
2022-11-29T13:56:13.410Z,1144.4
2022-11-29T13:59:39.894Z,1131
2022-11-29T14:01:23.237Z,1126.3
2022-11-29T14:03:06.638Z,1122.1
2022-11-29T14:04:50.145Z,1118.1
2022-11-29T14:06:33.423Z,1115.4
2022-11-29T14:08:16.851Z,1114.7
2022-11-29T14:10:00.257Z,1116.7
2022-11-29T14:11:43.796Z,1117
2022-11-29T14:13:27.068Z,1117.2
2022-11-29T14:15:10.730Z,1118.4
2022-11-29T14:16:54.126Z,1122.6
2022-11-29T14:18:37.546Z,1121.2
2022-11-29T14:20:20.913Z,1125
2022-11-29T14:22:04.312Z,1137.1
2022-11-29T14:23:47.724Z,1143.3
2022-11-29T14:25:31.092Z,1149.6
2022-11-29T14:27:14.515Z,1151.3
2022-11-29T14:32:23.740Z,1144.8
2022-11-29T14:34:07.147Z,1134.1
2022-11-29T14:35:50.528Z,1124.2
2022-11-29T14:37:33.920Z,1116.6
2022-11-29T14:39:17.315Z,1110.6
2022-11-29T14:41:00.726Z,1106.2
2022-11-29T14:42:44.134Z,1098.7
2022-11-29T14:44:27.524Z,1094.5
2022-11-29T14:49:36.766Z,1082.6
2022-11-29T14:51:20.194Z,1080.4
2022-11-29T14:53:03.578Z,1079.6
2022-11-29T14:54:46.961Z,1081.7
2022-11-29T14:56:30.349Z,1083
2022-11-29T14:58:13.809Z,1086.8
2022-11-29T14:59:57.174Z,1088.3
2022-11-29T15:01:40.607Z,1088.4
2022-11-29T15:05:07.016Z,1083.3
2022-11-29T15:06:50.436Z,1078.2
2022-11-29T15:08:33.813Z,1072.4
2022-11-29T15:10:17.201Z,1066.3
2022-11-29T15:12:00.600Z,1064.8
2022-11-29T15:13:43.995Z,1070.7
2022-11-29T15:15:27.396Z,1075.7
2022-11-29T15:17:10.810Z,1079.3
2022-11-29T15:22:20.030Z,1100.7
2022-11-29T15:24:03.509Z,1107
2022-11-29T15:25:46.828Z,1110.3
2022-11-29T15:27:30.220Z,1109.2
2022-11-29T15:29:13.618Z,1111.4
2022-11-29T15:30:57.016Z,1107.8
2022-11-29T15:32:40.458Z,1109.6
2022-11-29T15:34:23.817Z,1112.2
2022-11-29T15:39:33.098Z,1124.4
2022-11-29T15:41:16.438Z,1207
2022-11-29T15:42:59.863Z,1767
2022-11-29T15:44:43.231Z,1730.3
2022-11-29T15:46:26.663Z,1760.2
2022-11-29T15:48:10.064Z,1779.6
2022-11-29T15:49:53.496Z,1781.6
2022-11-29T15:51:50.652Z,2065.8
2022-11-29T15:53:34.360Z,1156.6
2022-11-29T15:55:17.747Z,1119.2
2022-11-29T15:57:01.155Z,1085.7
2022-11-29T15:58:44.565Z,392.5
2022-11-29T16:00:27.953Z,332.2
2022-11-29T16:02:11.348Z,328
2022-11-29T16:03:54.743Z,941.1
2022-11-29T16:05:55.303Z,2369.9
2022-11-29T16:07:38.715Z,1187.7
2022-11-29T16:09:22.164Z,1186
2022-11-29T16:11:05.511Z,1372
2022-11-29T16:12:48.891Z,1234.4
2022-11-29T16:17:58.135Z,1229.4
2022-11-29T16:19:41.531Z,1223.1
2022-11-29T16:21:24.956Z,1219.8
2022-11-29T16:23:08.313Z,1216.7
2022-11-29T16:24:51.721Z,1220.1
2022-11-29T16:26:35.124Z,1226.6
2022-11-29T16:28:18.524Z,1238.4
2022-11-29T16:30:01.924Z,1251.2
2022-11-29T16:31:45.346Z,1266.4
2022-11-29T16:35:11.772Z,1260.6
2022-11-29T16:36:55.185Z,1256.7
2022-11-29T16:38:38.579Z,1249.7
2022-11-29T16:40:21.975Z,1239.4
2022-11-29T16:42:05.365Z,1233.7
2022-11-29T16:43:48.774Z,1230.7
2022-11-29T16:45:32.170Z,1226.6
2022-11-29T16:47:15.565Z,1223
2022-11-29T16:52:24.818Z,1212.5
2022-11-29T16:54:08.195Z,1208
2022-11-29T16:55:51.593Z,1205.6
2022-11-29T16:57:35.002Z,1202
2022-11-29T16:59:18.393Z,1200.2
2022-11-29T17:01:01.795Z,1202
2022-11-29T17:02:45.179Z,1203.1
2022-11-29T17:04:28.578Z,1204.6
2022-11-29T17:09:37.903Z,1206.6
2022-11-29T17:11:21.216Z,1204.4
2022-11-29T17:13:04.619Z,1211.4
2022-11-29T17:14:48.130Z,1222
2022-11-29T17:16:31.430Z,1226
2022-11-29T17:18:14.806Z,1230
2022-11-29T17:19:58.192Z,1230.4
2022-11-29T17:21:41.616Z,1232.3
2022-11-29T17:26:50.843Z,1232.1
2022-11-29T17:28:34.253Z,1238.2
2022-11-29T17:30:17.633Z,1247.6
2022-11-29T17:32:01.080Z,1256.7
2022-11-29T17:33:44.436Z,1260.2
2022-11-29T17:35:27.840Z,1263.5
2022-11-29T17:37:11.232Z,1263.1
2022-11-29T17:38:54.635Z,1258.6
2022-11-29T17:44:03.862Z,1252.2
2022-11-29T17:45:47.265Z,1247.1
2022-11-29T17:47:30.753Z,1237.7
2022-11-29T17:49:14.103Z,1228
2022-11-29T17:50:57.450Z,1229.8
2022-11-29T17:52:40.858Z,1234.5
2022-11-29T17:54:24.265Z,1235.5
2022-11-29T17:56:07.691Z,1230.1
2022-11-29T17:57:51.040Z,1227.6
2022-11-29T18:01:17.530Z,1223.7
2022-11-29T18:03:00.897Z,1217.3
2022-11-29T18:04:44.311Z,1215.2
2022-11-29T18:06:27.701Z,1225.7
2022-11-29T18:08:11.098Z,1234.4
2022-11-29T18:09:54.496Z,1237.5
2022-11-29T18:11:37.910Z,1232.3
2022-11-29T18:13:21.289Z,1228.6
2022-11-29T18:18:30.545Z,1221.8
2022-11-29T18:20:13.957Z,1221.4
2022-11-29T18:21:57.323Z,1224.3
2022-11-29T18:23:40.745Z,1231.7
2022-11-29T18:25:24.127Z,1240.2
2022-11-29T18:27:07.572Z,1242.6
2022-11-29T18:28:50.932Z,1235.2
2022-11-29T18:30:34.337Z,1228.3
2022-11-29T18:34:00.786Z,1220.1
2022-11-29T18:35:44.225Z,1220.1
2022-11-29T18:37:27.598Z,1224.1
2022-11-29T18:39:11.070Z,1235.7
2022-11-29T18:40:54.377Z,1252.8
2022-11-29T18:42:37.796Z,1268
2022-11-29T18:44:21.235Z,1273.3
2022-11-29T18:46:04.563Z,1269.2
2022-11-29T18:47:47.962Z,1257.4
2022-11-29T18:51:14.454Z,1238.1
2022-11-29T18:52:57.839Z,1234.2
2022-11-29T18:54:41.242Z,1231.2
2022-11-29T18:56:24.620Z,1228.8
2022-11-29T18:58:08.155Z,1224.4
2022-11-29T18:59:51.438Z,1226.1
2022-11-29T19:01:34.874Z,1223.5
2022-11-29T19:03:18.269Z,1217.3
2022-11-29T19:05:01.619Z,1217.2
2022-11-29T19:06:45.399Z,1218.8
2022-11-29T19:08:28.807Z,1220.6
2022-11-29T19:10:12.169Z,1217.6
2022-11-29T19:11:55.612Z,1214.7
2022-11-29T19:13:38.955Z,1213.8
2022-11-29T19:15:22.328Z,1217.5
2022-11-29T19:17:05.732Z,1219.3
2022-11-29T19:18:49.114Z,1220.6
2022-11-29T19:20:32.515Z,1221.3
2022-11-29T19:25:41.744Z,1229.4
2022-11-29T19:27:25.298Z,1227.5
2022-11-29T19:29:08.520Z,1225.2
2022-11-29T19:30:51.949Z,1226.4
2022-11-29T19:32:35.358Z,1223.3
2022-11-29T19:34:18.726Z,1217.7
2022-11-29T19:36:02.139Z,1217.5
2022-11-29T19:37:45.524Z,1216
2022-11-29T19:39:29.079Z,1215.1
2022-11-29T19:42:55.379Z,1217.8
2022-11-29T19:44:38.799Z,1219.4
2022-11-29T19:46:22.239Z,1218.6
2022-11-29T19:48:05.571Z,1215.2
2022-11-29T19:49:48.985Z,1215.2
2022-11-29T19:51:32.371Z,1214.4
2022-11-29T19:53:15.806Z,1214.8
2022-11-29T19:54:59.186Z,1214
2022-11-29T19:58:25.640Z,1209.1
2022-11-29T20:00:09.070Z,1210
2022-11-29T20:01:52.487Z,1212.1
2022-11-29T20:03:35.840Z,1213.8
2022-11-29T20:05:19.234Z,1210.7
2022-11-29T20:07:02.711Z,1212.8
2022-11-29T20:08:46.051Z,1212.7
2022-11-29T20:10:29.453Z,1212.3
2022-11-29T20:15:38.665Z,1225.2
2022-11-29T20:17:22.061Z,1240.4
2022-11-29T20:19:05.499Z,1242.2
2022-11-29T20:20:48.861Z,1231.3
2022-11-29T20:22:32.409Z,1209.8
2022-11-29T20:24:15.645Z,1196.3
2022-11-29T20:25:59.063Z,1182.2
2022-11-29T20:27:42.439Z,1173.4
2022-11-29T20:32:51.682Z,1172.5
2022-11-29T20:36:18.471Z,1174.3
2022-11-29T20:38:01.858Z,1171.8
2022-11-29T20:39:45.268Z,1170.7
2022-11-29T20:41:28.698Z,1170.6
2022-11-29T20:43:12.074Z,1170.1
2022-11-29T20:44:55.482Z,1170.3
2022-11-29T20:48:21.970Z,1171.2
2022-11-29T20:50:05.357Z,1168.2
2022-11-29T20:51:48.744Z,1165.8
2022-11-29T20:53:32.180Z,1164.3
2022-11-29T20:55:15.570Z,1163.3
2022-11-29T20:56:59.022Z,1162.2
2022-11-29T20:58:42.313Z,1160.6
2022-11-29T21:00:25.714Z,1160.8
2022-11-29T21:02:09.112Z,1158.5
2022-11-29T21:03:52.826Z,1160.9
2022-11-29T21:05:36.203Z,1163.6
2022-11-29T21:07:19.615Z,1167.5
2022-11-29T21:09:03.004Z,1175.7
2022-11-29T21:10:46.519Z,1178.7
2022-11-29T21:12:29.813Z,1181.3
2022-11-29T21:14:13.217Z,1184.5
2022-11-29T21:15:56.589Z,1186.3
2022-11-29T21:17:39.992Z,1187.5
2022-11-29T21:19:23.688Z,1189.1
2022-11-29T21:21:07.155Z,1187.5
2022-11-29T21:22:50.556Z,1185.3
2022-11-29T21:24:33.922Z,1190.2
2022-11-29T21:26:17.282Z,1191.7
2022-11-29T21:28:00.678Z,1193.4
2022-11-29T21:29:44.156Z,1195.5
2022-11-29T21:31:27.642Z,1196.3
2022-11-29T21:33:10.883Z,1193
2022-11-29T21:36:37.438Z,1195.4
2022-11-29T21:38:20.732Z,1191.8
2022-11-29T21:40:04.177Z,1193.2
2022-11-29T21:41:47.521Z,1192.5
2022-11-29T21:43:30.942Z,1192.2
2022-11-29T21:45:14.338Z,1192.1
2022-11-29T21:46:57.755Z,1197.2
2022-11-29T21:48:41.119Z,1200.4
2022-11-29T21:53:50.369Z,1219
2022-11-29T21:55:33.792Z,1214.4
2022-11-29T21:57:17.190Z,1213.1
2022-11-29T21:59:00.559Z,1217
2022-11-29T22:00:43.946Z,1215
2022-11-29T22:02:27.477Z,1211
2022-11-29T22:04:10.737Z,1208.6
2022-11-29T22:05:54.147Z,1206
2022-11-29T22:07:37.596Z,1200.7
2022-11-29T22:11:04.024Z,1197
2022-11-29T22:12:47.411Z,1199
2022-11-29T22:14:30.809Z,1201.8
2022-11-29T22:16:14.200Z,1202.3
2022-11-29T22:17:57.625Z,1197.7
2022-11-29T22:19:41.052Z,1196.5
2022-11-29T22:21:24.480Z,1185.7
2022-11-29T22:23:07.795Z,1178.6
2022-11-29T22:26:34.357Z,1171.8
2022-11-29T22:28:17.654Z,1172.2
2022-11-29T22:30:01.059Z,1167.5
2022-11-29T22:31:44.475Z,1166.4
2022-11-29T22:33:27.905Z,1166.3
2022-11-29T22:35:11.270Z,1164.7
2022-11-29T22:36:54.707Z,1162.2
2022-11-29T22:38:38.044Z,1165.1
2022-11-29T22:40:21.428Z,1164.3
2022-11-29T22:43:47.952Z,1163.6
2022-11-29T22:45:31.318Z,1160
2022-11-29T22:47:14.701Z,1160.1
2022-11-29T22:48:58.098Z,1158.7
2022-11-29T22:50:41.486Z,1158.2
2022-11-29T22:52:24.961Z,1155.8
2022-11-29T22:54:08.330Z,1155.2
2022-11-29T22:55:51.677Z,1154.8
2022-11-29T22:59:18.344Z,1150.8
2022-11-29T23:01:01.549Z,1149.8
2022-11-29T23:02:45.049Z,1148.4
2022-11-29T23:04:28.408Z,1147.6
2022-11-29T23:06:11.798Z,1144.3
2022-11-29T23:07:55.200Z,1143
2022-11-29T23:09:38.530Z,1136.6
2022-11-29T23:11:21.936Z,1133.2
2022-11-29T23:16:31.175Z,1123.4
2022-11-29T23:18:14.577Z,1120.1
2022-11-29T23:19:57.985Z,1116.7
2022-11-29T23:21:41.364Z,1114
2022-11-29T23:23:24.754Z,1115.1
2022-11-29T23:25:08.201Z,1116.6
2022-11-29T23:26:51.558Z,1120.1
2022-11-29T23:28:34.949Z,1121.6
2022-11-29T23:32:01.419Z,1125.6
2022-11-29T23:33:44.824Z,1124.7
2022-11-29T23:35:28.225Z,1123.1
2022-11-29T23:37:11.622Z,1121.3
2022-11-29T23:38:55.010Z,1123.2
2022-11-29T23:40:38.434Z,1123.8
2022-11-29T23:42:21.810Z,1126.3
2022-11-29T23:44:05.190Z,1126
2022-11-29T23:45:48.907Z,1126.4
2022-11-29T23:47:32.302Z,1131.8
